Terminal Aerodrome Forecast
Issued by NWS Green Bay, WI

Home | Current Version | Previous Version | Graphics & Text | Print | Product List | Glossary On
Versions: 1 2 3 4 5 6 7 8 9 10 11 12 13 14 15 16 17 18 19 20 21 22 23
000
FTUS43 KGRB 232320
TAFGRB
TAF
KGRB 232320Z 2400/2424 27012G18KT P6SM BKN020
     FM240200 28007KT P6SM BKN020
      TEMPO 2402/2406 SCT020
     FM240600 29006KT P6SM SCT020
     FM240900 VRB03KT 4SM BR FEW015
     FM241400 05004KT P6SM SKC
     FM241800 09008KT P6SM BKN080=

USA.gov is the U.S. government's official web portal to all federal, state and local government web resources and services.